createdAt,value
2019-01-22T00:00:54.471Z,3.96
2019-01-22T00:15:51.535Z,3.26
2019-01-22T00:30:51.640Z,2.94
2019-01-22T00:45:51.390Z,2.60
2019-01-22T01:00:50.876Z,2.56
2019-01-22T01:15:51.354Z,2.53
2019-01-22T01:30:50.706Z,2.53
2019-01-22T01:45:51.085Z,2.64
2019-01-22T02:00:53.491Z,2.38
2019-01-22T04:15:53.608Z,1.29
2019-01-22T09:45:51.698Z,1.89
2019-01-22T10:00:50.999Z,2.69
2019-01-22T10:15:51.453Z,2.98
2019-01-22T10:30:51.399Z,2.81
2019-01-22T10:45:51.772Z,2.94
2019-01-22T11:00:50.275Z,2.79
2019-01-22T11:15:53.564Z,2.68
2019-01-22T11:30:51.475Z,2.53
2019-01-22T11:45:50.915Z,2.36
2019-01-22T12:00:57.424Z,2.24
2019-01-22T12:15:50.794Z,1.93
2019-01-22T12:30:50.716Z,1.90
2019-01-22T12:45:51.145Z,1.82
2019-01-22T13:00:50.927Z,1.89
2019-01-22T13:15:50.930Z,1.80
2019-01-22T13:30:50.847Z,1.61
2019-01-22T13:45:51.151Z,1.68
2019-01-22T14:15:51.190Z,1.49
2019-01-22T14:30:51.084Z,1.33
2019-01-22T14:45:51.612Z,1.36
2019-01-22T15:00:53.030Z,1.25
2019-01-22T15:15:51.283Z,1.10
2019-01-22T15:30:51.195Z,1.16
2019-01-22T15:45:50.686Z,0.99
2019-01-22T16:00:51.101Z,1.15
2019-01-22T16:15:51.451Z,0.86
2019-01-22T16:30:53.193Z,0.69
2019-01-22T16:45:51.180Z,0.55
2019-01-22T17:00:51.001Z,0.52
2019-01-22T17:15:51.347Z,0.52
2019-01-22T17:30:50.687Z,0.55
2019-01-22T17:45:54.169Z,0.58
2019-01-22T18:00:57.241Z,0.72
2019-01-22T18:15:55.792Z,0.83
2019-01-22T18:30:54.348Z,1.03
2019-01-22T18:45:51.282Z,1.04
2019-01-22T19:00:51.752Z,0.92
2019-01-22T19:15:53.309Z,0.86
2019-01-22T19:30:53.705Z,1.03
2019-01-22T19:45:55.226Z,1.12
2019-01-22T20:00:52.911Z,1.16
2019-01-22T20:15:53.428Z,1.58
2019-01-22T20:30:53.387Z,1.61
2019-01-22T20:45:52.764Z,1.46
2019-01-22T21:00:50.915Z,1.52
2019-01-22T21:15:50.707Z,1.88
2019-01-22T21:30:53.637Z,2.19
2019-01-22T21:45:50.955Z,2.36
2019-01-22T22:00:50.951Z,1.82
2019-01-22T22:15:51.592Z,1.78
2019-01-22T22:30:50.761Z,1.82
2019-01-22T22:45:51.133Z,2.00
2019-01-22T23:15:51.158Z,1.67
2019-01-22T23:30:50.947Z,1.83
2019-01-22T23:45:51.397Z,2.22
